sensor_id;sensor_type;location;lat;lon;timestamp;pressure;altitude;pressure_sealevel;temperature;humidity
18137;BME280;9194;42.632;23.298;2023-09-19T00:03:31;92980.22;;;14.22;100.00
18137;BME280;9194;42.632;23.298;2023-09-19T00:08:32;92985.09;;;14.30;100.00
18137;BME280;9194;42.632;23.298;2023-09-19T00:13:34;92982.56;;;14.07;100.00
18137;BME280;9194;42.632;23.298;2023-09-19T00:18:37;92981.91;;;14.00;100.00
18137;BME280;9194;42.632;23.298;2023-09-19T00:23:39;92974.75;;;13.95;100.00
18137;BME280;9194;42.632;23.298;2023-09-19T00:28:42;92971.78;;;13.92;100.00
18137;BME280;9194;42.632;23.298;2023-09-19T00:33:44;92964.16;;;14.02;100.00
18137;BME280;9194;42.632;23.298;2023-09-19T00:38:45;92961.28;;;14.04;100.00
18137;BME280;9194;42.632;23.298;2023-09-19T00:43:47;92956.44;;;13.95;100.00
18137;BME280;9194;42.632;23.298;2023-09-19T00:48:48;92956.00;;;13.87;100.00
18137;BME280;9194;42.632;23.298;2023-09-19T00:53:51;92961.53;;;13.74;100.00
18137;BME280;9194;42.632;23.298;2023-09-19T00:58:53;92964.78;;;13.81;100.00
18137;BME280;9194;42.632;23.298;2023-09-19T01:03:54;92964.22;;;13.79;100.00
18137;BME280;9194;42.632;23.298;2023-09-19T01:08:56;92959.25;;;13.66;100.00
18137;BME280;9194;42.632;23.298;2023-09-19T01:30:20;92966.81;;;13.50;100.00
18137;BME280;9194;42.632;23.298;2023-09-19T01:35:23;92966.00;;;13.38;100.00
18137;BME280;9194;42.632;23.298;2023-09-19T01:40:24;92960.88;;;13.43;100.00
18137;BME280;9194;42.632;23.298;2023-09-19T01:50:55;92956.78;;;13.36;100.00
18137;BME280;9194;42.632;23.298;2023-09-19T01:56:00;92965.44;;;13.25;100.00
18137;BME280;9194;42.632;23.298;2023-09-19T02:01:04;92959.78;;;13.16;100.00
18137;BME280;9194;42.632;23.298;2023-09-19T02:06:07;92963.84;;;13.24;100.00
18137;BME280;9194;42.632;23.298;2023-09-19T02:11:12;92963.16;;;13.28;100.00
18137;BME280;9194;42.632;23.298;2023-09-19T02:16:16;92965.34;;;13.20;100.00
18137;BME280;9194;42.632;23.298;2023-09-19T02:21:18;92973.06;;;13.26;100.00
18137;BME280;9194;42.632;23.298;2023-09-19T02:26:19;92967.38;;;13.29;100.00
18137;BME280;9194;42.632;23.298;2023-09-19T02:31:22;92958.06;;;13.22;100.00
18137;BME280;9194;42.632;23.298;2023-09-19T02:36:23;92948.06;;;13.19;100.00
18137;BME280;9194;42.632;23.298;2023-09-19T02:41:24;92952.72;;;13.16;100.00
18137;BME280;9194;42.632;23.298;2023-09-19T02:46:26;92941.94;;;13.13;100.00
18137;BME280;9194;42.632;23.298;2023-09-19T02:51:27;92931.38;;;13.20;100.00
18137;BME280;9194;42.632;23.298;2023-09-19T02:56:28;92932.03;;;13.27;100.00
18137;BME280;9194;42.632;23.298;2023-09-19T03:01:30;92928.41;;;13.04;100.00
18137;BME280;9194;42.632;23.298;2023-09-19T03:06:31;92928.50;;;13.09;100.00
18137;BME280;9194;42.632;23.298;2023-09-19T03:11:34;92919.06;;;12.97;100.00
18137;BME280;9194;42.632;23.298;2023-09-19T03:16:35;92921.22;;;13.00;100.00
18137;BME280;9194;42.632;23.298;2023-09-19T03:21:38;92919.44;;;13.12;100.00
18137;BME280;9194;42.632;23.298;2023-09-19T03:26:40;92917.16;;;13.15;100.00
18137;BME280;9194;42.632;23.298;2023-09-19T03:31:42;92914.63;;;13.09;100.00
18137;BME280;9194;42.632;23.298;2023-09-19T03:36:43;92915.44;;;13.09;100.00
18137;BME280;9194;42.632;23.298;2023-09-19T03:41:45;92922.69;;;13.07;100.00
18137;BME280;9194;42.632;23.298;2023-09-19T03:46:46;92930.53;;;12.96;100.00
18137;BME280;9194;42.632;23.298;2023-09-19T03:51:48;92934.88;;;12.90;100.00
18137;BME280;9194;42.632;23.298;2023-09-19T03:56:49;92928.50;;;12.74;100.00
18137;BME280;9194;42.632;23.298;2023-09-19T04:01:51;92932.47;;;12.89;100.00
18137;BME280;9194;42.632;23.298;2023-09-19T04:06:57;92940.09;;;12.90;100.00
18137;BME280;9194;42.632;23.298;2023-09-19T04:11:58;92938.97;;;12.86;100.00
18137;BME280;9194;42.632;23.298;2023-09-19T04:16:59;92952.56;;;12.88;100.00
18137;BME280;9194;42.632;23.298;2023-09-19T04:22:02;92954.16;;;13.01;100.00
18137;BME280;9194;42.632;23.298;2023-09-19T04:27:05;92948.03;;;13.07;100.00
18137;BME280;9194;42.632;23.298;2023-09-19T04:32:06;92942.94;;;13.24;100.00
18137;BME280;9194;42.632;23.298;2023-09-19T04:37:08;92941.91;;;13.36;100.00
18137;BME280;9194;42.632;23.298;2023-09-19T04:42:09;92933.81;;;13.49;100.00
18137;BME280;9194;42.632;23.298;2023-09-19T04:47:15;92928.19;;;13.69;100.00
18137;BME280;9194;42.632;23.298;2023-09-19T04:52:17;92924.97;;;13.79;100.00
18137;BME280;9194;42.632;23.298;2023-09-19T04:57:18;92930.09;;;14.30;100.00
18137;BME280;9194;42.632;23.298;2023-09-19T05:02:19;92928.97;;;14.55;100.00
18137;BME280;9194;42.632;23.298;2023-09-19T05:07:20;92913.47;;;14.87;100.00
18137;BME280;9194;42.632;23.298;2023-09-19T05:12:26;92913.63;;;15.13;100.00
18137;BME280;9194;42.632;23.298;2023-09-19T05:17:28;92921.81;;;15.39;100.00
18137;BME280;9194;42.632;23.298;2023-09-19T05:22:29;92914.34;;;15.47;100.00
18137;BME280;9194;42.632;23.298;2023-09-19T05:27:30;92913.88;;;15.72;100.00
18137;BME280;9194;42.632;23.298;2023-09-19T05:32:32;92904.44;;;15.98;100.00
18137;BME280;9194;42.632;23.298;2023-09-19T05:37:33;92902.88;;;16.24;100.00
18137;BME280;9194;42.632;23.298;2023-09-19T05:42:34;92907.19;;;16.35;100.00
18137;BME280;9194;42.632;23.298;2023-09-19T05:47:36;92904.69;;;15.96;100.00
18137;BME280;9194;42.632;23.298;2023-09-19T05:52:37;92898.94;;;16.26;100.00
18137;BME280;9194;42.632;23.298;2023-09-19T05:57:39;92897.41;;;16.57;100.00
18137;BME280;9194;42.632;23.298;2023-09-19T06:02:40;92897.41;;;16.57;100.00
18137;BME280;9194;42.632;23.298;2023-09-19T06:07:41;92898.16;;;16.53;100.00
18137;BME280;9194;42.632;23.298;2023-09-19T06:12:43;92899.28;;;16.62;100.00
18137;BME280;9194;42.632;23.298;2023-09-19T06:17:50;92893.56;;;16.65;100.00
18137;BME280;9194;42.632;23.298;2023-09-19T06:22:52;92888.31;;;17.07;100.00
18137;BME280;9194;42.632;23.298;2023-09-19T06:27:54;92872.69;;;17.37;100.00
18137;BME280;9194;42.632;23.298;2023-09-19T06:32:56;92877.69;;;17.91;100.00
18137;BME280;9194;42.632;23.298;2023-09-19T06:37:58;92878.81;;;18.35;100.00
18137;BME280;9194;42.632;23.298;2023-09-19T06:42:59;92889.97;;;18.58;100.00
18137;BME280;9194;42.632;23.298;2023-09-19T06:48:03;92885.72;;;18.77;100.00
18137;BME280;9194;42.632;23.298;2023-09-19T06:53:04;92896.03;;;18.78;100.00
18137;BME280;9194;42.632;23.298;2023-09-19T06:58:05;92890.44;;;19.10;100.00
18137;BME280;9194;42.632;23.298;2023-09-19T07:03:07;92892.03;;;19.26;99.42
18137;BME280;9194;42.632;23.298;2023-09-19T07:08:12;92893.59;;;19.38;97.17
18137;BME280;9194;42.632;23.298;2023-09-19T07:13:14;92890.44;;;19.31;95.10
18137;BME280;9194;42.632;23.298;2023-09-19T07:18:18;92901.78;;;19.31;95.67
18137;BME280;9194;42.632;23.298;2023-09-19T07:23:20;92899.13;;;19.46;97.29
18137;BME280;9194;42.632;23.298;2023-09-19T07:28:21;92906.50;;;19.59;94.84
18137;BME280;9194;42.632;23.298;2023-09-19T07:33:23;92903.81;;;19.69;95.87
18137;BME280;9194;42.632;23.298;2023-09-19T07:38:27;92906.19;;;19.71;96.40
18137;BME280;9194;42.632;23.298;2023-09-19T07:43:29;92899.50;;;19.89;93.10
18137;BME280;9194;42.632;23.298;2023-09-19T07:48:30;92901.19;;;19.64;95.99
18137;BME280;9194;42.632;23.298;2023-09-19T07:53:32;92903.09;;;19.39;98.08
18137;BME280;9194;42.632;23.298;2023-09-19T07:58:40;92915.22;;;19.35;96.17
18137;BME280;9194;42.632;23.298;2023-09-19T08:03:44;92909.59;;;19.77;95.69
18137;BME280;9194;42.632;23.298;2023-09-19T08:08:46;92906.22;;;19.41;95.90
18137;BME280;9194;42.632;23.298;2023-09-19T08:13:47;92898.84;;;19.43;98.47
18137;BME280;9194;42.632;23.298;2023-09-19T08:18:49;92892.44;;;19.79;98.31
18137;BME280;9194;42.632;23.298;2023-09-19T08:23:54;92875.94;;;20.02;94.29
18137;BME280;9194;42.632;23.298;2023-09-19T08:28:55;92865.84;;;20.09;93.31
18137;BME280;9194;42.632;23.298;2023-09-19T08:33:56;92876.84;;;20.37;90.90
18137;BME280;9194;42.632;23.298;2023-09-19T08:38:57;92884.13;;;20.89;87.42
18137;BME280;9194;42.632;23.298;2023-09-19T08:43:59;92885.06;;;21.32;86.96
18137;BME280;9194;42.632;23.298;2023-09-19T08:49:04;92871.44;;;21.91;81.07
18137;BME280;9194;42.632;23.298;2023-09-19T08:54:07;92878.50;;;21.53;82.21
18137;BME280;9194;42.632;23.298;2023-09-19T08:59:09;92870.63;;;21.48;86.60
18137;BME280;9194;42.632;23.298;2023-09-19T09:04:11;92863.59;;;21.34;87.40
18137;BME280;9194;42.632;23.298;2023-09-19T09:09:14;92862.38;;;21.73;85.52
18137;BME280;9194;42.632;23.298;2023-09-19T09:14:16;92865.84;;;21.93;78.97
18137;BME280;9194;42.632;23.298;2023-09-19T09:19:18;92854.78;;;22.09;80.25
18137;BME280;9194;42.632;23.298;2023-09-19T09:24:31;92855.31;;;21.88;81.25
18137;BME280;9194;42.632;23.298;2023-09-19T09:29:42;92840.13;;;21.93;80.26
18137;BME280;9194;42.632;23.298;2023-09-19T09:34:44;92849.00;;;22.26;78.54
18137;BME280;9194;42.632;23.298;2023-09-19T09:39:53;92844.84;;;22.20;80.14
18137;BME280;9194;42.632;23.298;2023-09-19T09:45:18;92836.09;;;22.20;77.89
18137;BME280;9194;42.632;23.298;2023-09-19T09:50:32;92821.38;;;22.97;75.55
18137;BME280;9194;42.632;23.298;2023-09-19T10:01:04;92807.25;;;23.97;70.90
18137;BME280;9194;42.632;23.298;2023-09-19T10:06:16;92817.69;;;23.25;72.63
18137;BME280;9194;42.632;23.298;2023-09-19T10:11:27;92822.72;;;22.81;73.19
18137;BME280;9194;42.632;23.298;2023-09-19T10:16:32;92823.84;;;22.93;75.40
18137;BME280;9194;42.632;23.298;2023-09-19T10:21:34;92815.13;;;23.20;72.71
18137;BME280;9194;42.632;23.298;2023-09-19T10:26:37;92802.38;;;23.50;72.91
18137;BME280;9194;42.632;23.298;2023-09-19T10:31:42;92815.16;;;23.48;75.32
18137;BME280;9194;42.632;23.298;2023-09-19T10:36:51;92805.81;;;23.78;74.33
18137;BME280;9194;42.632;23.298;2023-09-19T10:41:53;92805.59;;;23.33;72.44
18137;BME280;9194;42.632;23.298;2023-09-19T10:46:59;92814.91;;;23.03;76.92
18137;BME280;9194;42.632;23.298;2023-09-19T10:52:01;92793.31;;;23.23;74.71
18137;BME280;9194;42.632;23.298;2023-09-19T10:57:03;92796.56;;;23.61;74.75
18137;BME280;9194;42.632;23.298;2023-09-19T11:02:16;92791.38;;;23.56;71.60
18137;BME280;9194;42.632;23.298;2023-09-19T11:07:18;92788.53;;;24.02;70.65
18137;BME280;9194;42.632;23.298;2023-09-19T11:17:37;92778.25;;;23.87;72.42
18137;BME280;9194;42.632;23.298;2023-09-19T11:33:28;92766.06;;;24.08;75.57
18137;BME280;9194;42.632;23.298;2023-09-19T11:43:45;92750.63;;;23.97;69.43
18137;BME280;9194;42.632;23.298;2023-09-19T11:48:48;92734.13;;;23.86;68.50
18137;BME280;9194;42.632;23.298;2023-09-19T11:53:51;92737.09;;;24.21;72.54
18137;BME280;9194;42.632;23.298;2023-09-19T11:58:54;92723.63;;;24.03;74.44
18137;BME280;9194;42.632;23.298;2023-09-19T12:03:57;92735.09;;;23.77;72.99
18137;BME280;9194;42.632;23.298;2023-09-19T12:09:00;92732.50;;;23.49;75.37
18137;BME280;9194;42.632;23.298;2023-09-19T12:14:07;92716.75;;;22.98;79.13
18137;BME280;9194;42.632;23.298;2023-09-19T12:19:20;92714.28;;;22.74;78.75
18137;BME280;9194;42.632;23.298;2023-09-19T12:24:23;92710.38;;;22.53;81.11
18137;BME280;9194;42.632;23.298;2023-09-19T12:29:27;92705.78;;;22.59;81.44
18137;BME280;9194;42.632;23.298;2023-09-19T12:34:30;92694.00;;;22.65;83.83
18137;BME280;9194;42.632;23.298;2023-09-19T12:39:35;92688.00;;;22.59;80.50
18137;BME280;9194;42.632;23.298;2023-09-19T12:44:37;92690.94;;;22.58;79.05
18137;BME280;9194;42.632;23.298;2023-09-19T12:50:11;92698.59;;;22.59;79.29
18137;BME280;9194;42.632;23.298;2023-09-19T12:55:28;92690.19;;;22.71;80.80
18137;BME280;9194;42.632;23.298;2023-09-19T13:00:34;92681.75;;;22.96;83.32
18137;BME280;9194;42.632;23.298;2023-09-19T13:05:52;92675.84;;;22.99;79.90
18137;BME280;9194;42.632;23.298;2023-09-19T13:16:10;92670.94;;;23.06;80.06
18137;BME280;9194;42.632;23.298;2023-09-19T13:21:15;92673.09;;;22.77;82.16
18137;BME280;9194;42.632;23.298;2023-09-19T13:26:23;92658.06;;;23.00;81.96
18137;BME280;9194;42.632;23.298;2023-09-19T13:31:24;92651.06;;;23.17;81.34
18137;BME280;9194;42.632;23.298;2023-09-19T13:36:26;92644.34;;;23.20;79.84
18137;BME280;9194;42.632;23.298;2023-09-19T13:41:27;92646.34;;;23.01;80.62
18137;BME280;9194;42.632;23.298;2023-09-19T13:46:30;92648.81;;;22.97;81.78
18137;BME280;9194;42.632;23.298;2023-09-19T13:51:34;92647.53;;;22.95;82.09
18137;BME280;9194;42.632;23.298;2023-09-19T13:56:35;92647.16;;;22.87;82.63
18137;BME280;9194;42.632;23.298;2023-09-19T14:01:37;92648.91;;;23.06;79.27
18137;BME280;9194;42.632;23.298;2023-09-19T14:06:41;92641.03;;;23.14;79.87
18137;BME280;9194;42.632;23.298;2023-09-19T14:11:43;92642.66;;;23.38;82.18
18137;BME280;9194;42.632;23.298;2023-09-19T14:16:47;92646.44;;;23.09;82.09
18137;BME280;9194;42.632;23.298;2023-09-19T14:21:50;92652.16;;;23.16;77.09
18137;BME280;9194;42.632;23.298;2023-09-19T14:26:52;92642.41;;;23.12;78.73
18137;BME280;9194;42.632;23.298;2023-09-19T14:31:53;92638.69;;;22.99;84.36
18137;BME280;9194;42.632;23.298;2023-09-19T14:36:56;92641.63;;;22.84;91.98
18137;BME280;9194;42.632;23.298;2023-09-19T14:41:57;92643.72;;;22.27;99.39
18137;BME280;9194;42.632;23.298;2023-09-19T14:46:58;92644.44;;;21.82;100.00
18137;BME280;9194;42.632;23.298;2023-09-19T14:52:00;92647.09;;;21.44;100.00
18137;BME280;9194;42.632;23.298;2023-09-19T14:57:01;92640.91;;;21.11;100.00
18137;BME280;9194;42.632;23.298;2023-09-19T15:02:06;92636.63;;;20.97;100.00
18137;BME280;9194;42.632;23.298;2023-09-19T15:07:07;92636.25;;;21.03;100.00
18137;BME280;9194;42.632;23.298;2023-09-19T15:12:09;92632.09;;;20.97;100.00
18137;BME280;9194;42.632;23.298;2023-09-19T15:17:12;92633.44;;;20.95;100.00
18137;BME280;9194;42.632;23.298;2023-09-19T15:22:13;92619.97;;;20.91;100.00
18137;BME280;9194;42.632;23.298;2023-09-19T15:27:15;92626.06;;;20.91;100.00
18137;BME280;9194;42.632;23.298;2023-09-19T15:32:17;92622.47;;;20.82;100.00
18137;BME280;9194;42.632;23.298;2023-09-19T15:37:18;92617.13;;;20.87;100.00
18137;BME280;9194;42.632;23.298;2023-09-19T15:42:21;92620.13;;;20.81;100.00
18137;BME280;9194;42.632;23.298;2023-09-19T15:47:22;92630.56;;;20.72;100.00
18137;BME280;9194;42.632;23.298;2023-09-19T15:52:23;92636.06;;;20.52;100.00
18137;BME280;9194;42.632;23.298;2023-09-19T15:57:27;92640.06;;;20.21;100.00
18137;BME280;9194;42.632;23.298;2023-09-19T16:02:29;92648.22;;;19.95;100.00
18137;BME280;9194;42.632;23.298;2023-09-19T16:07:31;92654.16;;;19.77;100.00
18137;BME280;9194;42.632;23.298;2023-09-19T16:12:32;92649.50;;;19.64;100.00
18137;BME280;9194;42.632;23.298;2023-09-19T16:17:33;92654.84;;;19.54;100.00
18137;BME280;9194;42.632;23.298;2023-09-19T16:22:35;92664.50;;;19.24;100.00
18137;BME280;9194;42.632;23.298;2023-09-19T16:27:36;92661.44;;;19.07;100.00
18137;BME280;9194;42.632;23.298;2023-09-19T16:32:37;92668.13;;;18.84;100.00
18137;BME280;9194;42.632;23.298;2023-09-19T16:37:39;92674.50;;;18.78;100.00
18137;BME280;9194;42.632;23.298;2023-09-19T16:42:40;92676.09;;;18.64;100.00
18137;BME280;9194;42.632;23.298;2023-09-19T16:47:41;92683.25;;;18.43;100.00
18137;BME280;9194;42.632;23.298;2023-09-19T16:52:43;92678.75;;;18.49;100.00
18137;BME280;9194;42.632;23.298;2023-09-19T16:57:44;92682.72;;;18.52;100.00
18137;BME280;9194;42.632;23.298;2023-09-19T17:02:47;92679.03;;;18.47;100.00
18137;BME280;9194;42.632;23.298;2023-09-19T17:07:48;92682.22;;;18.44;100.00
18137;BME280;9194;42.632;23.298;2023-09-19T17:12:49;92681.16;;;18.35;100.00
18137;BME280;9194;42.632;23.298;2023-09-19T17:17:52;92681.72;;;18.27;100.00
18137;BME280;9194;42.632;23.298;2023-09-19T17:22:54;92674.63;;;18.23;100.00
18137;BME280;9194;42.632;23.298;2023-09-19T17:27:55;92678.81;;;18.34;100.00
18137;BME280;9194;42.632;23.298;2023-09-19T17:32:57;92671.16;;;18.32;100.00
18137;BME280;9194;42.632;23.298;2023-09-19T17:37:58;92671.16;;;18.27;100.00
18137;BME280;9194;42.632;23.298;2023-09-19T17:42:59;92677.25;;;18.23;100.00
18137;BME280;9194;42.632;23.298;2023-09-19T17:48:03;92693.31;;;18.26;100.00
18137;BME280;9194;42.632;23.298;2023-09-19T17:53:06;92691.75;;;18.05;100.00
18137;BME280;9194;42.632;23.298;2023-09-19T17:58:07;92695.94;;;18.06;100.00
18137;BME280;9194;42.632;23.298;2023-09-19T18:03:08;92709.13;;;18.26;100.00
18137;BME280;9194;42.632;23.298;2023-09-19T18:08:09;92703.31;;;18.19;100.00
18137;BME280;9194;42.632;23.298;2023-09-19T18:13:12;92707.28;;;18.22;100.00
18137;BME280;9194;42.632;23.298;2023-09-19T18:18:13;92709.91;;;18.12;100.00
18137;BME280;9194;42.632;23.298;2023-09-19T18:23:16;92703.59;;;18.08;100.00
18137;BME280;9194;42.632;23.298;2023-09-19T18:28:18;92705.97;;;17.99;100.00
18137;BME280;9194;42.632;23.298;2023-09-19T18:33:19;92705.44;;;17.97;100.00
18137;BME280;9194;42.632;23.298;2023-09-19T18:38:21;92709.13;;;17.96;100.00
18137;BME280;9194;42.632;23.298;2023-09-19T18:43:23;92718.59;;;18.07;100.00
18137;BME280;9194;42.632;23.298;2023-09-19T18:48:24;92727.03;;;18.09;100.00
18137;BME280;9194;42.632;23.298;2023-09-19T18:53:28;92729.41;;;18.31;100.00
18137;BME280;9194;42.632;23.298;2023-09-19T18:58:29;92732.31;;;18.39;100.00
18137;BME280;9194;42.632;23.298;2023-09-19T19:03:31;92733.31;;;18.48;100.00
18137;BME280;9194;42.632;23.298;2023-09-19T19:08:34;92733.31;;;18.48;100.00
18137;BME280;9194;42.632;23.298;2023-09-19T19:13:35;92728.84;;;18.54;100.00
18137;BME280;9194;42.632;23.298;2023-09-19T19:18:37;92718.59;;;18.58;100.00
18137;BME280;9194;42.632;23.298;2023-09-19T19:23:40;92729.09;;;18.47;100.00
18137;BME280;9194;42.632;23.298;2023-09-19T19:28:42;92718.84;;;18.41;100.00
18137;BME280;9194;42.632;23.298;2023-09-19T19:33:45;92738.06;;;18.41;100.00
18137;BME280;9194;42.632;23.298;2023-09-19T19:38:46;92742.81;;;18.29;100.00
18137;BME280;9194;42.632;23.298;2023-09-19T19:43:47;92743.91;;;18.33;100.00
18137;BME280;9194;42.632;23.298;2023-09-19T19:48:49;92753.38;;;18.44;100.00
18137;BME280;9194;42.632;23.298;2023-09-19T19:53:52;92766.28;;;18.51;100.00
18137;BME280;9194;42.632;23.298;2023-09-19T19:58:55;92775.50;;;18.64;100.00
18137;BME280;9194;42.632;23.298;2023-09-19T20:03:57;92796.84;;;18.52;100.00
18137;BME280;9194;42.632;23.298;2023-09-19T20:08:58;92815.03;;;18.48;100.00
18137;BME280;9194;42.632;23.298;2023-09-19T20:14:00;92854.91;;;18.62;100.00
18137;BME280;9194;42.632;23.298;2023-09-19T20:19:04;92887.50;;;18.11;100.00
18137;BME280;9194;42.632;23.298;2023-09-19T20:24:05;92950.34;;;17.82;100.00
18137;BME280;9194;42.632;23.298;2023-09-19T20:29:07;92972.50;;;17.96;100.00
18137;BME280;9194;42.632;23.298;2023-09-19T20:34:08;92991.66;;;17.76;100.00
18137;BME280;9194;42.632;23.298;2023-09-19T20:39:10;93001.63;;;17.69;100.00
18137;BME280;9194;42.632;23.298;2023-09-19T20:44:11;93037.66;;;17.63;100.00
18137;BME280;9194;42.632;23.298;2023-09-19T20:49:12;93057.25;;;17.46;100.00
18137;BME280;9194;42.632;23.298;2023-09-19T20:54:13;93052.50;;;17.11;100.00
18137;BME280;9194;42.632;23.298;2023-09-19T20:59:17;93051.91;;;17.04;100.00
18137;BME280;9194;42.632;23.298;2023-09-19T21:04:18;93060.41;;;16.89;100.00
18137;BME280;9194;42.632;23.298;2023-09-19T21:09:20;93048.44;;;16.71;100.00
18137;BME280;9194;42.632;23.298;2023-09-19T21:14:22;93036.53;;;16.64;100.00
18137;BME280;9194;42.632;23.298;2023-09-19T21:19:23;93026.19;;;16.57;100.00
18137;BME280;9194;42.632;23.298;2023-09-19T21:24:24;93009.84;;;16.55;100.00
18137;BME280;9194;42.632;23.298;2023-09-19T21:29:31;92984.19;;;16.62;100.00
18137;BME280;9194;42.632;23.298;2023-09-19T21:34:32;92952.50;;;16.47;100.00
18137;BME280;9194;42.632;23.298;2023-09-19T21:39:34;92917.69;;;16.35;100.00
18137;BME280;9194;42.632;23.298;2023-09-19T21:44:36;92897.03;;;16.49;100.00
18137;BME280;9194;42.632;23.298;2023-09-19T21:49:37;92874.94;;;16.44;100.00
18137;BME280;9194;42.632;23.298;2023-09-19T21:54:39;92877.34;;;16.46;100.00
18137;BME280;9194;42.632;23.298;2023-09-19T21:59:41;92861.56;;;16.46;100.00
18137;BME280;9194;42.632;23.298;2023-09-19T22:04:47;92856.78;;;16.43;100.00
18137;BME280;9194;42.632;23.298;2023-09-19T22:09:48;92858.38;;;16.44;100.00
18137;BME280;9194;42.632;23.298;2023-09-19T22:14:49;92863.22;;;16.57;100.00
18137;BME280;9194;42.632;23.298;2023-09-19T22:19:51;92863.63;;;16.44;100.00
18137;BME280;9194;42.632;23.298;2023-09-19T22:24:54;92862.63;;;16.50;100.00
18137;BME280;9194;42.632;23.298;2023-09-19T22:29:58;92861.00;;;16.44;100.00
18137;BME280;9194;42.632;23.298;2023-09-19T22:35:00;92867.91;;;16.50;100.00
18137;BME280;9194;42.632;23.298;2023-09-19T22:40:03;92859.00;;;16.56;100.00
18137;BME280;9194;42.632;23.298;2023-09-19T22:45:26;92853.38;;;16.42;100.00
18137;BME280;9194;42.632;23.298;2023-09-19T22:50:27;92854.34;;;16.31;100.00
18137;BME280;9194;42.632;23.298;2023-09-19T22:55:35;92851.47;;;16.33;100.00
18137;BME280;9194;42.632;23.298;2023-09-19T23:00:41;92848.25;;;16.26;100.00
18137;BME280;9194;42.632;23.298;2023-09-19T23:05:43;92847.28;;;16.05;100.00
18137;BME280;9194;42.632;23.298;2023-09-19T23:10:47;92846.63;;;16.20;100.00
18137;BME280;9194;42.632;23.298;2023-09-19T23:15:51;92833.88;;;16.33;100.00
18137;BME280;9194;42.632;23.298;2023-09-19T23:20:55;92845.13;;;16.29;100.00
18137;BME280;9194;42.632;23.298;2023-09-19T23:26:05;92844.34;;;16.28;100.00
18137;BME280;9194;42.632;23.298;2023-09-19T23:31:07;92838.50;;;16.21;100.00
18137;BME280;9194;42.632;23.298;2023-09-19T23:36:08;92836.78;;;16.05;100.00
18137;BME280;9194;42.632;23.298;2023-09-19T23:41:10;92833.28;;;15.94;100.00
18137;BME280;9194;42.632;23.298;2023-09-19T23:46:16;92824.25;;;15.85;100.00
18137;BME280;9194;42.632;23.298;2023-09-19T23:51:17;92835.16;;;15.72;100.00
18137;BME280;9194;42.632;23.298;2023-09-19T23:56:21;92837.66;;;15.62;100.00
